createdAt,value
2022-09-14T07:33:02.276Z,10.13
2022-09-14T07:38:05.819Z,13.02
2022-09-14T07:43:12.302Z,9.32
2022-09-14T07:48:17.234Z,8.83
2022-09-14T07:53:20.685Z,15.63
2022-09-14T07:58:24.448Z,15.23
2022-09-14T08:03:32.648Z,13.93
2022-09-14T08:08:39.048Z,13.30
2022-09-14T08:13:44.863Z,10.75
2022-09-14T08:18:55.079Z,13.25
2022-09-14T08:24:00.351Z,11.45
2022-09-14T08:29:07.543Z,12.35
2022-09-14T08:34:12.801Z,9.80
2022-09-14T08:39:17.816Z,8.98
2022-09-14T08:44:26.996Z,14.45
2022-09-14T08:49:46.222Z,12.20
2022-09-14T08:54:52.786Z,10.80
2022-09-14T09:00:03.534Z,13.77
2022-09-14T09:05:35.418Z,9.38
2022-09-14T09:10:41.293Z,13.10
2022-09-14T09:15:49.798Z,10.00
2022-09-14T09:21:00.360Z,11.40
2022-09-14T09:26:07.102Z,9.80
2022-09-14T09:31:14.965Z,8.55
2022-09-14T09:36:53.604Z,11.02
2022-09-14T09:42:01.633Z,9.85
2022-09-14T09:47:05.627Z,7.88
2022-09-14T09:52:13.065Z,11.68
2022-09-14T09:57:23.383Z,16.77
2022-09-14T10:02:29.495Z,10.13
2022-09-14T10:07:39.183Z,8.95
2022-09-14T10:12:48.390Z,10.93
2022-09-14T10:17:56.795Z,11.35
2022-09-14T10:23:23.420Z,8.05
2022-09-14T10:28:31.591Z,6.60
2022-09-14T10:33:36.355Z,8.30
2022-09-14T10:38:47.022Z,9.02
2022-09-14T10:44:29.112Z,11.43
2022-09-14T10:49:52.781Z,10.80
2022-09-14T10:55:15.159Z,12.23
2022-09-14T11:00:21.399Z,7.75
2022-09-14T11:05:29.053Z,10.48
2022-09-14T11:10:47.817Z,9.98
2022-09-14T11:16:00.709Z,11.10
2022-09-14T11:21:17.164Z,6.72
2022-09-14T11:26:31.640Z,6.72
2022-09-14T11:31:55.309Z,6.68
2022-09-14T11:37:10.886Z,11.35
2022-09-14T11:42:21.481Z,12.10
2022-09-14T11:47:26.234Z,7.30
2022-09-14T11:52:34.272Z,6.78
2022-09-14T11:57:39.709Z,8.32
2022-09-14T12:02:58.842Z,9.10
2022-09-14T12:08:25.174Z,8.10
2022-09-14T12:13:33.108Z,6.82
2022-09-14T12:18:38.212Z,6.38
2022-09-14T12:23:52.117Z,5.57
2022-09-14T12:29:05.369Z,10.55
2022-09-14T12:34:20.077Z,6.30
2022-09-14T12:39:25.932Z,7.53
2022-09-14T12:44:34.297Z,7.82
2022-09-14T12:49:38.048Z,7.75
2022-09-14T12:54:51.562Z,6.20
2022-09-14T13:00:06.354Z,9.10
2022-09-14T13:05:15.775Z,7.15
2022-09-14T13:10:21.723Z,7.97
2022-09-14T13:15:29.424Z,12.75
2022-09-14T13:20:34.810Z,8.32
2022-09-14T13:25:41.341Z,11.60
2022-09-14T13:30:56.214Z,10.38
2022-09-14T13:36:02.212Z,6.80
2022-09-14T13:41:11.523Z,9.13
2022-09-14T13:46:20.413Z,10.35
2022-09-14T13:51:26.904Z,8.73
2022-09-14T13:57:08.776Z,6.72
2022-09-14T14:02:19.726Z,5.60
2022-09-14T14:07:49.106Z,5.82
2022-09-14T14:19:41.575Z,19.90
2022-09-14T14:25:11.878Z,6.70
2022-09-14T14:30:15.836Z,6.72
2022-09-14T14:35:26.736Z,19.77
2022-09-14T14:40:32.654Z,10.77
2022-09-14T14:45:37.956Z,6.28
2022-09-14T14:50:43.131Z,7.82
2022-09-14T15:01:45.575Z,8.88
2022-09-14T15:07:21.923Z,8.88
2022-09-14T15:17:44.512Z,7.72
2022-09-14T15:23:08.326Z,6.60
2022-09-14T15:28:17.643Z,9.15
2022-09-14T15:33:35.416Z,8.98
2022-09-14T15:38:45.567Z,7.63
2022-09-14T15:44:03.416Z,5.38
2022-09-14T15:49:20.002Z,8.52
2022-09-14T16:05:34.540Z,11.77
2022-09-14T16:10:38.397Z,11.00
2022-09-14T16:15:44.250Z,7.23
2022-09-14T16:20:47.975Z,6.45
2022-09-14T16:25:51.625Z,6.13
2022-09-14T16:31:08.699Z,6.82
2022-09-14T16:36:14.900Z,8.35
2022-09-14T16:41:20.362Z,8.35
2022-09-14T16:46:32.132Z,8.13
2022-09-14T16:51:45.761Z,6.57
2022-09-14T16:56:49.630Z,8.50
2022-09-14T17:01:56.821Z,7.15
2022-09-14T17:07:00.453Z,7.65
2022-09-14T17:12:04.587Z,8.05
2022-09-14T17:17:12.519Z,9.65
2022-09-14T17:22:16.034Z,10.55
2022-09-14T17:27:19.954Z,6.45
2022-09-14T17:32:24.927Z,11.53
2022-09-14T17:37:29.699Z,8.30
2022-09-14T17:42:33.555Z,7.38
2022-09-14T17:47:38.855Z,10.80
2022-09-14T17:52:44.822Z,8.85
2022-09-14T17:57:48.410Z,9.57
2022-09-14T18:04:17.982Z,10.73
2022-09-14T18:09:07.091Z,15.50
2022-09-14T18:14:12.743Z,12.70
2022-09-14T18:19:18.000Z,12.32
2022-09-14T18:24:22.314Z,11.48
2022-09-14T18:29:27.613Z,10.35
2022-09-14T18:34:32.598Z,13.90
2022-09-14T18:39:36.176Z,15.95
2022-09-14T18:44:42.796Z,14.45
2022-09-14T18:49:49.415Z,16.07
2022-09-14T18:54:52.975Z,14.23
2022-09-14T18:59:56.508Z,14.98
2022-09-14T19:05:01.703Z,13.60
2022-09-14T19:10:11.488Z,14.45
2022-09-14T19:15:15.402Z,15.63
2022-09-14T19:20:22.310Z,19.27
2022-09-14T19:25:26.020Z,13.40
2022-09-14T19:30:29.584Z,15.20
2022-09-14T19:35:37.106Z,16.13
2022-09-14T19:40:40.860Z,19.50
2022-09-14T19:45:44.461Z,16.35
2022-09-14T19:50:49.389Z,11.77
2022-09-14T19:55:52.915Z,14.93
2022-09-14T20:00:57.500Z,12.88
2022-09-14T20:06:03.827Z,18.33
2022-09-14T20:11:08.921Z,22.88
2022-09-14T20:16:14.521Z,18.73
2022-09-14T20:21:21.773Z,13.15
2022-09-14T20:26:26.324Z,14.50
2022-09-14T20:31:31.443Z,18.63
2022-09-14T20:36:42.242Z,18.00
2022-09-14T20:41:48.654Z,15.75
2022-09-14T20:46:52.549Z,13.87
2022-09-14T20:51:58.901Z,13.67
2022-09-14T20:57:04.588Z,15.02
2022-09-14T21:02:08.413Z,14.50
2022-09-14T21:07:13.367Z,16.42
2022-09-14T21:12:17.079Z,16.70
2022-09-14T21:17:21.810Z,17.67
2022-09-14T21:22:26.725Z,19.58
2022-09-14T21:27:30.298Z,24.33
2022-09-14T21:32:34.175Z,15.90
2022-09-14T21:37:39.195Z,14.45
2022-09-14T21:42:42.832Z,14.65
2022-09-14T21:47:49.821Z,12.73
2022-09-14T21:52:57.360Z,11.40
2022-09-14T21:58:00.948Z,14.02
2022-09-14T22:03:06.677Z,13.85
2022-09-14T22:08:26.626Z,15.52
2022-09-14T22:13:30.268Z,16.83
2022-09-14T22:18:33.774Z,11.68
